createdAt,value
2023-02-04T00:01:00.163Z,877.33333
2023-02-04T00:06:01.954Z,906.5
2023-02-04T00:11:03.608Z,877.33333
2023-02-04T00:16:05.645Z,836.75362
2023-02-04T00:21:07.281Z,836.75362
2023-02-04T00:26:08.908Z,787.83562
2023-02-04T00:31:10.583Z,824
2023-02-04T00:36:12.183Z,677.33333
2023-02-04T00:41:13.796Z,723.74684
2023-02-04T00:46:15.482Z,686.16867
2023-02-04T00:51:17.302Z,714
2023-02-04T00:56:18.905Z,714
2023-02-04T01:01:20.620Z,754.52632
2023-02-04T01:06:22.318Z,787.83562
2023-02-04T01:11:24.037Z,776.43243
2023-02-04T01:16:25.770Z,776.43243
2023-02-04T01:21:27.484Z,704.49383
2023-02-04T01:26:29.271Z,686.16867
2023-02-04T01:31:31.108Z,704.49383
2023-02-04T01:36:32.765Z,677.33333
2023-02-04T01:41:34.516Z,704.49383
2023-02-04T01:46:36.159Z,714
2023-02-04T01:51:37.806Z,660.27907
2023-02-04T01:56:39.409Z,644
2023-02-04T02:01:41.034Z,677.33333
2023-02-04T02:06:42.773Z,744
2023-02-04T02:11:44.393Z,704.49383
2023-02-04T02:16:46.112Z,620.92308
2023-02-04T02:21:47.795Z,644
2023-02-04T02:26:49.396Z,686.16867
2023-02-04T02:31:51.228Z,668.70588
2023-02-04T02:36:52.994Z,644
2023-02-04T02:41:54.758Z,613.56522
2023-02-04T02:46:56.425Z,620.92308
2023-02-04T02:51:58.192Z,620.92308
2023-02-04T02:56:59.892Z,606.36559
2023-02-04T03:02:02.349Z,592.42105
2023-02-04T03:07:04.053Z,636.13483
2023-02-04T03:12:05.708Z,668.70588
2023-02-04T03:17:07.349Z,660.27907
2023-02-04T03:22:09.108Z,660.27907
2023-02-04T03:27:10.738Z,660.27907
2023-02-04T03:32:12.382Z,660.27907
2023-02-04T03:37:13.975Z,668.70588
2023-02-04T03:42:15.699Z,599.31915
2023-02-04T03:47:17.386Z,613.56522
2023-02-04T03:52:19.056Z,644
2023-02-04T03:57:20.682Z,652.04598
2023-02-04T04:02:22.326Z,644
2023-02-04T04:07:23.952Z,644
2023-02-04T04:12:25.611Z,620.92308
2023-02-04T04:17:27.235Z,628.44444
2023-02-04T04:22:28.857Z,613.56522
2023-02-04T04:27:30.567Z,592.42105
2023-02-04T04:32:32.302Z,652.04598
2023-02-04T04:37:34.004Z,660.27907
2023-02-04T04:42:35.643Z,644
2023-02-04T04:47:37.315Z,652.04598
2023-02-04T04:52:39.056Z,652.04598
2023-02-04T04:57:40.943Z,652.04598
2023-02-04T05:02:42.658Z,660.27907
2023-02-04T05:07:44.530Z,704.49383
2023-02-04T05:12:46.193Z,695.21951
2023-02-04T05:17:47.882Z,686.16867
2023-02-04T05:22:49.657Z,677.33333
2023-02-04T05:27:51.404Z,723.74684
2023-02-04T05:32:53.094Z,714
2023-02-04T05:37:54.810Z,677.33333
2023-02-04T05:42:56.436Z,677.33333
2023-02-04T05:47:58.064Z,660.27907
2023-02-04T05:52:59.926Z,668.70588
2023-02-04T05:58:01.586Z,668.70588
2023-02-04T06:03:03.305Z,695.21951
2023-02-04T06:08:05.059Z,704.49383
2023-02-04T06:13:06.931Z,695.21951
2023-02-04T06:18:08.741Z,714
2023-02-04T06:23:10.560Z,714
2023-02-04T06:28:12.329Z,704.49383
2023-02-04T06:33:14.161Z,686.16867
2023-02-04T06:38:15.861Z,660.27907
2023-02-04T06:43:17.556Z,644
2023-02-04T06:48:19.256Z,660.27907
2023-02-04T06:53:20.933Z,677.33333
2023-02-04T06:58:22.739Z,677.33333
2023-02-04T07:03:24.437Z,695.21951
2023-02-04T07:08:26.117Z,695.21951
2023-02-04T07:13:27.821Z,723.74684
2023-02-04T07:18:29.807Z,733.74359
2023-02-04T07:23:31.648Z,744
2023-02-04T07:28:33.358Z,754.52632
2023-02-04T07:33:35.106Z,714
2023-02-04T07:38:36.849Z,704.49383
2023-02-04T07:43:38.530Z,714
2023-02-04T07:48:40.344Z,723.74684
2023-02-04T07:53:42.103Z,744
2023-02-04T07:58:43.855Z,754.52632
2023-02-04T08:03:45.656Z,733.74359
2023-02-04T08:08:47.307Z,733.74359
2023-02-04T08:13:49.134Z,765.33333
2023-02-04T08:18:50.841Z,776.43243
2023-02-04T08:23:52.717Z,799.55556
2023-02-04T08:28:54.373Z,799.55556
2023-02-04T08:33:56.305Z,765.33333
2023-02-04T08:38:58.144Z,754.52632
2023-02-04T08:43:59.866Z,733.74359
2023-02-04T08:49:01.548Z,733.74359
2023-02-04T08:54:03.325Z,723.74684
2023-02-04T08:59:05.131Z,704.49383
2023-02-04T09:04:06.828Z,723.74684
2023-02-04T09:09:08.510Z,714
2023-02-04T09:14:10.245Z,704.49383
2023-02-04T09:19:11.951Z,714
2023-02-04T09:24:13.658Z,714
2023-02-04T09:29:15.319Z,686.16867
2023-02-04T09:34:17.016Z,686.16867
2023-02-04T09:39:18.700Z,668.70588
2023-02-04T09:44:20.505Z,677.33333
2023-02-04T09:49:22.199Z,704.49383
2023-02-04T09:54:23.890Z,704.49383
2023-02-04T09:59:25.471Z,704.49383
2023-02-04T10:04:27.213Z,723.74684
2023-02-04T10:09:28.892Z,733.74359
2023-02-04T10:14:30.562Z,733.74359
2023-02-04T10:19:32.233Z,744
2023-02-04T10:24:33.965Z,744
2023-02-04T10:29:35.622Z,733.74359
2023-02-04T10:34:37.420Z,744
2023-02-04T10:39:39.204Z,754.52632
2023-02-04T10:44:40.870Z,733.74359
2023-02-04T10:49:42.584Z,733.74359
2023-02-04T10:54:44.392Z,744
2023-02-04T10:59:46.051Z,733.74359
2023-02-04T11:04:47.760Z,723.74684
2023-02-04T11:09:49.487Z,733.74359
2023-02-04T11:14:51.184Z,714
2023-02-04T11:19:52.874Z,714
2023-02-04T11:24:54.564Z,723.74684
2023-02-04T11:29:56.586Z,704.49383
2023-02-04T11:34:58.243Z,704.49383
2023-02-04T11:39:59.893Z,695.21951
2023-02-04T11:45:01.627Z,714
2023-02-04T11:50:03.233Z,686.16867
2023-02-04T11:55:05.063Z,704.49383
2023-02-04T12:00:06.769Z,704.49383
2023-02-04T12:05:08.383Z,714
2023-02-04T12:10:10.018Z,733.74359
2023-02-04T12:15:11.899Z,744
2023-02-04T12:20:13.620Z,733.74359
2023-02-04T12:25:15.721Z,714
2023-02-04T12:30:17.497Z,723.74684
2023-02-04T12:35:19.257Z,714
2023-02-04T12:40:20.982Z,733.74359
2023-02-04T12:45:22.766Z,704.49383
2023-02-04T12:50:24.492Z,733.74359
2023-02-04T12:55:26.225Z,733.74359
2023-02-04T13:00:27.935Z,704.49383
2023-02-04T13:05:29.865Z,695.21951
2023-02-04T13:10:31.572Z,686.16867
2023-02-04T13:15:33.649Z,695.21951
2023-02-04T13:20:35.509Z,668.70588
2023-02-04T13:25:37.279Z,668.70588
2023-02-04T13:30:39.036Z,668.70588
2023-02-04T13:35:40.761Z,668.70588
2023-02-04T13:40:42.457Z,644
2023-02-04T13:45:44.301Z,628.44444
2023-02-04T13:50:46.242Z,677.33333
2023-02-04T13:55:48.272Z,628.44444
2023-02-04T14:00:50.013Z,733.74359
2023-02-04T14:05:51.741Z,686.16867
2023-02-04T14:10:53.656Z,677.33333
2023-02-04T14:15:55.305Z,660.27907
2023-02-04T14:20:57.002Z,686.16867
2023-02-04T14:25:58.978Z,660.27907
2023-02-04T14:31:00.790Z,652.04598
2023-02-04T14:36:02.642Z,668.70588
2023-02-04T14:41:04.407Z,668.70588
2023-02-04T14:46:06.108Z,686.16867
2023-02-04T14:51:07.999Z,660.27907
2023-02-04T14:56:09.785Z,652.04598
2023-02-04T15:01:11.792Z,660.27907
2023-02-04T15:06:13.859Z,628.44444
2023-02-04T15:11:15.603Z,606.36559
2023-02-04T15:16:17.312Z,644
2023-02-04T15:21:19.232Z,652.04598
2023-02-04T15:26:20.991Z,660.27907
2023-02-04T15:31:22.809Z,660.27907
2023-02-04T15:36:24.605Z,660.27907
2023-02-04T15:41:26.264Z,668.70588
2023-02-04T15:46:28.127Z,652.04598
2023-02-04T15:51:29.917Z,660.27907
2023-02-04T15:56:31.619Z,660.27907
2023-02-04T16:01:33.761Z,668.70588
2023-02-04T16:06:35.623Z,599.31915
2023-02-04T16:11:37.241Z,636.13483
2023-02-04T16:16:38.930Z,668.70588
2023-02-04T16:21:40.563Z,644
2023-02-04T16:26:42.260Z,636.13483
2023-02-04T16:31:43.988Z,636.13483
2023-02-04T16:36:45.976Z,628.44444
2023-02-04T16:41:47.649Z,636.13483
2023-02-04T16:46:49.430Z,644
2023-02-04T16:51:51.184Z,628.44444
2023-02-04T16:56:52.923Z,686.16867
2023-02-04T17:01:54.594Z,744
2023-02-04T17:06:56.400Z,686.16867
2023-02-04T17:11:58.047Z,660.27907
2023-02-04T17:16:59.872Z,652.04598
2023-02-04T17:22:01.497Z,652.04598
2023-02-04T17:27:03.304Z,704.49383
2023-02-04T17:32:04.952Z,714
2023-02-04T17:37:06.699Z,695.21951
2023-02-04T17:42:08.336Z,686.16867
2023-02-04T17:47:09.977Z,704.49383
2023-02-04T17:52:11.887Z,733.74359
2023-02-04T17:57:13.499Z,744
2023-02-04T18:02:15.277Z,754.52632
2023-02-04T18:07:17.364Z,733.74359
2023-02-04T18:12:19.076Z,744
2023-02-04T18:17:20.695Z,723.74684
2023-02-04T18:22:22.316Z,704.49383
2023-02-04T18:27:24.726Z,704.49383
2023-02-04T18:32:26.558Z,714
2023-02-04T18:37:28.216Z,744
2023-02-04T18:42:29.802Z,733.74359
2023-02-04T18:47:31.853Z,714
2023-02-04T18:52:33.621Z,714
2023-02-04T18:57:35.318Z,776.43243
2023-02-04T19:02:37.076Z,776.43243
2023-02-04T19:07:38.799Z,799.55556
2023-02-04T19:12:40.472Z,824
2023-02-04T19:17:42.122Z,765.33333
2023-02-04T19:22:43.840Z,0
2023-02-04T19:27:45.679Z,0
2023-02-04T19:32:47.622Z,799.55556
2023-02-04T19:37:49.255Z,799.55556
2023-02-04T19:42:50.894Z,799.55556
2023-02-04T19:47:52.527Z,0
2023-02-04T19:52:54.176Z,0
2023-02-04T19:57:55.979Z,0
2023-02-04T20:02:57.862Z,776.43243
2023-02-04T20:07:59.465Z,0
2023-02-04T20:13:01.398Z,0
2023-02-04T20:18:03.017Z,0
2023-02-04T20:23:04.746Z,0
2023-02-04T20:28:06.466Z,0
2023-02-04T20:33:08.167Z,0
2023-02-04T20:38:10.111Z,0
2023-02-04T20:43:11.980Z,0
2023-02-04T20:48:13.658Z,0
2023-02-04T20:53:15.297Z,0
2023-02-04T20:58:16.904Z,0
2023-02-04T21:03:18.523Z,0
2023-02-04T21:08:20.258Z,799.55556
2023-02-04T21:13:21.928Z,0
2023-02-04T21:18:23.699Z,0
2023-02-04T21:23:25.451Z,0
2023-02-04T21:28:27.045Z,0
2023-02-04T21:33:28.808Z,0
2023-02-04T21:38:30.544Z,0
2023-02-04T21:43:32.242Z,0
2023-02-04T21:48:33.903Z,0
2023-02-04T21:53:35.572Z,0
2023-02-04T21:58:37.301Z,0
2023-02-04T22:03:38.972Z,0
2023-02-04T22:08:40.639Z,0
2023-02-04T22:13:42.303Z,0
2023-02-04T22:18:43.978Z,0
2023-02-04T22:23:45.676Z,0
2023-02-04T22:28:47.293Z,0
2023-02-04T22:33:49.003Z,0
2023-02-04T22:38:50.622Z,0
2023-02-04T22:43:52.227Z,0
2023-02-04T22:48:53.905Z,0
2023-02-04T22:53:55.518Z,0
2023-02-04T22:58:57.221Z,0
2023-02-04T23:03:58.892Z,0
2023-02-04T23:09:00.584Z,0
2023-02-04T23:14:02.364Z,0
2023-02-04T23:19:04.395Z,0
2023-02-04T23:24:06.044Z,0
2023-02-04T23:29:07.712Z,0
2023-02-04T23:34:09.376Z,0
2023-02-04T23:39:11.052Z,0
2023-02-04T23:44:12.961Z,0
2023-02-04T23:49:14.618Z,0
2023-02-04T23:54:16.279Z,0
2023-02-04T23:59:18.214Z,765.33333
